createdAt,value
2023-06-26T00:01:33.444Z,23.30
2023-06-26T00:04:00.694Z,23.30
2023-06-26T00:06:27.900Z,23.30
2023-06-26T00:08:55.280Z,23.40
2023-06-26T00:11:23.048Z,23.40
2023-06-26T00:13:49.734Z,23.30
2023-06-26T00:16:16.385Z,23.30
2023-06-26T00:18:43.077Z,23.30
2023-06-26T00:21:09.717Z,23.20
2023-06-26T00:23:39.798Z,23.20
2023-06-26T00:26:07.144Z,23.20
2023-06-26T00:28:34.004Z,23.20
2023-06-26T00:31:00.892Z,23.20
2023-06-26T00:33:27.599Z,23.30
2023-06-26T00:35:54.218Z,23.30
2023-06-26T00:38:21.130Z,23.30
2023-06-26T00:40:47.755Z,23.30
2023-06-26T00:43:14.458Z,23.30
2023-06-26T00:45:43.058Z,23.30
2023-06-26T00:48:13.137Z,23.30
2023-06-26T00:50:41.051Z,23.20
2023-06-26T00:53:07.781Z,23.30
2023-06-26T00:55:34.732Z,23.20
2023-06-26T00:58:01.416Z,23.10
2023-06-26T01:00:28.616Z,23.10
2023-06-26T01:03:00.120Z,23.10
2023-06-26T01:05:29.054Z,22.90
2023-06-26T01:07:56.362Z,23.00
2023-06-26T01:10:23.963Z,23.00
2023-06-26T01:12:50.901Z,22.80
2023-06-26T01:15:17.580Z,22.70
2023-06-26T01:17:46.229Z,22.70
2023-06-26T01:20:14.053Z,22.80
2023-06-26T01:22:51.111Z,22.90
2023-06-26T01:25:44.468Z,22.90
2023-06-26T01:28:12.448Z,22.90
2023-06-26T01:30:46.607Z,22.90
2023-06-26T01:33:14.676Z,22.80
2023-06-26T01:35:41.889Z,22.90
2023-06-26T01:38:19.655Z,22.90
2023-06-26T01:40:46.504Z,23.00
2023-06-26T01:43:41.853Z,23.10
2023-06-26T01:46:45.548Z,23.10
2023-06-26T01:49:49.472Z,23.10
2023-06-26T01:52:43.001Z,23.00
2023-06-26T01:55:36.982Z,23.10
2023-06-26T01:58:04.648Z,23.20
2023-06-26T02:00:32.876Z,23.20
2023-06-26T02:02:59.870Z,23.20
2023-06-26T02:05:26.689Z,23.30
2023-06-26T02:07:53.369Z,23.20
2023-06-26T02:10:20.007Z,23.20
2023-06-26T02:12:46.674Z,23.20
2023-06-26T02:15:13.514Z,23.10
2023-06-26T02:17:40.217Z,23.10
2023-06-26T02:20:08.818Z,23.10
2023-06-26T02:22:35.488Z,23.10
2023-06-26T02:25:02.087Z,23.10
2023-06-26T02:27:28.816Z,23.10
2023-06-26T02:29:55.474Z,23.00
2023-06-26T02:32:22.143Z,23.00
2023-06-26T02:34:48.773Z,23.00
2023-06-26T02:37:17.111Z,23.00
2023-06-26T02:39:43.679Z,23.00
2023-06-26T02:42:10.288Z,22.90
2023-06-26T02:44:36.924Z,23.00
2023-06-26T02:47:04.199Z,22.90
2023-06-26T02:49:30.826Z,23.00
2023-06-26T02:51:57.472Z,23.00
2023-06-26T02:54:24.119Z,22.90
2023-06-26T02:56:50.776Z,22.90
2023-06-26T02:59:17.345Z,22.90
2023-06-26T03:01:44.030Z,22.90
2023-06-26T03:04:11.606Z,22.90
2023-06-26T03:06:38.348Z,22.80
2023-06-26T03:09:04.981Z,22.80
2023-06-26T03:11:31.580Z,22.80
2023-06-26T03:13:58.308Z,22.90
2023-06-26T03:16:24.932Z,22.80
2023-06-26T03:18:51.552Z,22.80
2023-06-26T03:23:52.179Z,22.90
2023-06-26T03:26:18.766Z,22.90
2023-06-26T03:28:45.423Z,22.90
2023-06-26T03:31:12.136Z,22.90
2023-06-26T03:33:39.223Z,22.80
2023-06-26T03:36:07.142Z,22.90
2023-06-26T03:38:33.727Z,23.00
2023-06-26T03:41:00.407Z,22.90
2023-06-26T03:43:27.096Z,23.00
2023-06-26T03:45:53.694Z,23.00
2023-06-26T03:48:20.328Z,23.00
2023-06-26T03:50:47.121Z,23.00
2023-06-26T03:53:13.796Z,23.00
2023-06-26T03:55:40.727Z,23.00
2023-06-26T03:58:07.654Z,23.00
2023-06-26T04:00:34.298Z,23.00
2023-06-26T04:03:00.962Z,23.00
2023-06-26T04:05:27.598Z,23.00
2023-06-26T04:07:55.000Z,23.00
2023-06-26T04:10:22.329Z,23.00
2023-06-26T04:12:49.286Z,23.00
2023-06-26T04:15:15.987Z,23.00
2023-06-26T04:17:42.640Z,23.00
2023-06-26T04:20:10.092Z,23.10
2023-06-26T04:22:36.900Z,23.00
2023-06-26T04:25:04.508Z,23.00
2023-06-26T04:27:36.120Z,23.10
2023-06-26T04:30:04.090Z,23.10
2023-06-26T04:32:30.779Z,23.10
2023-06-26T04:34:57.452Z,23.10
2023-06-26T04:37:25.625Z,23.10
2023-06-26T04:39:52.316Z,23.10
2023-06-26T04:42:20.036Z,23.10
2023-06-26T04:44:46.690Z,23.20
2023-06-26T04:47:15.957Z,23.10
2023-06-26T04:49:46.822Z,23.20
2023-06-26T04:52:14.438Z,23.20
2023-06-26T04:54:41.263Z,23.20
2023-06-26T04:57:09.876Z,23.20
2023-06-26T04:59:36.640Z,23.30
2023-06-26T05:02:04.135Z,23.30
2023-06-26T05:04:30.872Z,23.30
2023-06-26T05:06:57.520Z,23.40
2023-06-26T05:09:24.191Z,23.40
2023-06-26T05:11:50.837Z,23.40
2023-06-26T05:14:17.480Z,23.40
2023-06-26T05:16:44.186Z,23.40
2023-06-26T05:19:10.785Z,23.40
2023-06-26T05:21:37.723Z,23.50
2023-06-26T05:24:05.271Z,23.50
2023-06-26T05:26:32.071Z,23.50
2023-06-26T05:28:59.014Z,23.50
2023-06-26T05:31:25.961Z,23.50
2023-06-26T05:33:56.349Z,23.60
2023-06-26T05:36:24.976Z,23.60
2023-06-26T05:38:51.949Z,23.70
2023-06-26T05:41:18.888Z,23.70
2023-06-26T05:43:45.517Z,23.80
2023-06-26T05:46:12.478Z,23.90
2023-06-26T05:48:39.226Z,23.90
2023-06-26T05:51:06.269Z,24.00
2023-06-26T05:53:33.325Z,24.00
2023-06-26T05:56:00.245Z,24.00
2023-06-26T05:58:30.829Z,24.00
2023-06-26T06:00:57.488Z,24.10
2023-06-26T06:03:24.597Z,24.10
2023-06-26T06:05:51.361Z,24.10
2023-06-26T06:08:18.127Z,24.20
2023-06-26T06:10:44.758Z,24.20
2023-06-26T06:13:11.435Z,24.20
2023-06-26T06:15:38.209Z,24.20
2023-06-26T06:18:05.064Z,24.20
2023-06-26T06:20:31.691Z,24.20
2023-06-26T06:22:58.276Z,24.30
2023-06-26T06:25:24.845Z,24.30
2023-06-26T06:27:51.454Z,24.30
2023-06-26T06:30:20.222Z,24.30
2023-06-26T06:32:53.645Z,24.30
2023-06-26T06:35:20.291Z,24.30
2023-06-26T06:37:46.881Z,24.30
2023-06-26T06:40:13.872Z,24.40
2023-06-26T06:42:40.761Z,24.40
2023-06-26T06:45:07.796Z,24.40
2023-06-26T06:47:35.024Z,24.40
2023-06-26T06:50:11.697Z,24.40
2023-06-26T06:52:41.112Z,24.40
2023-06-26T06:55:11.643Z,24.40
2023-06-26T06:57:39.912Z,24.40
2023-06-26T07:00:09.495Z,24.50
2023-06-26T07:02:40.601Z,24.50
2023-06-26T07:05:07.447Z,24.50
2023-06-26T07:07:35.843Z,24.50
2023-06-26T07:10:06.540Z,24.50
2023-06-26T07:12:33.155Z,24.50
2023-06-26T07:15:02.390Z,24.50
2023-06-26T07:17:29.059Z,24.50
2023-06-26T07:19:55.700Z,24.50
2023-06-26T07:22:22.521Z,24.50
2023-06-26T07:24:49.430Z,24.50
2023-06-26T07:27:17.183Z,24.60
2023-06-26T07:29:43.949Z,24.60
2023-06-26T07:32:12.149Z,24.60
2023-06-26T07:34:40.615Z,24.60
2023-06-26T07:37:07.226Z,24.60
2023-06-26T07:39:33.903Z,24.60
2023-06-26T07:42:00.613Z,24.60
2023-06-26T07:44:28.022Z,24.60
2023-06-26T07:46:54.907Z,24.60
2023-06-26T07:49:21.598Z,24.60
2023-06-26T07:51:48.267Z,24.60
2023-06-26T07:54:14.892Z,24.60
2023-06-26T07:57:00.836Z,24.60
2023-06-26T07:59:29.676Z,24.60
2023-06-26T08:01:58.066Z,24.70
2023-06-26T08:04:31.466Z,24.70
2023-06-26T08:06:59.667Z,24.70
2023-06-26T08:09:28.619Z,24.70
2023-06-26T08:11:56.034Z,24.70
2023-06-26T08:14:22.880Z,24.70
2023-06-26T08:16:49.813Z,24.70
2023-06-26T08:19:17.301Z,24.70
2023-06-26T08:21:45.133Z,24.70
2023-06-26T08:24:12.446Z,24.70
2023-06-26T08:26:39.148Z,24.70
2023-06-26T08:29:10.879Z,24.70
2023-06-26T08:31:39.976Z,24.80
2023-06-26T08:34:07.582Z,24.80
2023-06-26T08:36:34.550Z,24.80
2023-06-26T08:39:01.317Z,24.80
2023-06-26T08:41:28.503Z,24.80
2023-06-26T08:43:55.351Z,24.80
2023-06-26T08:46:22.026Z,24.80
2023-06-26T08:49:01.517Z,24.80
2023-06-26T08:51:29.829Z,24.80
2023-06-26T08:54:01.678Z,24.80
2023-06-26T08:56:33.422Z,24.80
2023-06-26T08:59:00.960Z,24.80
2023-06-26T09:01:28.456Z,24.80
2023-06-26T09:03:55.228Z,24.80
2023-06-26T09:06:21.926Z,24.80
2023-06-26T09:08:48.617Z,24.80
2023-06-26T09:11:15.220Z,24.80
2023-06-26T09:13:42.374Z,24.90
2023-06-26T09:16:09.674Z,24.90
2023-06-26T09:18:36.455Z,24.90
2023-06-26T09:21:10.908Z,24.90
2023-06-26T09:23:37.928Z,24.90
2023-06-26T09:26:06.037Z,24.90
2023-06-26T09:28:34.352Z,24.90
2023-06-26T09:31:07.777Z,24.90
2023-06-26T09:33:39.834Z,24.90
2023-06-26T09:36:19.141Z,25.00
2023-06-26T09:38:45.920Z,24.90
2023-06-26T09:41:12.703Z,24.90
2023-06-26T09:43:52.128Z,24.90
2023-06-26T09:46:28.349Z,25.00
2023-06-26T09:49:09.817Z,25.00
2023-06-26T09:51:37.703Z,25.00
2023-06-26T09:54:06.202Z,25.00
2023-06-26T09:56:34.021Z,25.00
2023-06-26T09:59:02.657Z,25.00
2023-06-26T10:01:30.424Z,25.00
2023-06-26T10:04:02.088Z,25.00
2023-06-26T10:06:36.649Z,25.00
2023-06-26T10:09:04.867Z,25.00
2023-06-26T10:11:41.759Z,25.00
2023-06-26T10:14:17.473Z,25.00
2023-06-26T10:16:46.265Z,25.00
2023-06-26T10:19:15.584Z,25.00
2023-06-26T10:21:42.668Z,25.00
2023-06-26T10:24:12.283Z,25.00
2023-06-26T10:26:43.406Z,25.00
2023-06-26T10:29:11.173Z,25.10
2023-06-26T10:31:39.427Z,25.10
2023-06-26T10:34:07.015Z,25.10
2023-06-26T10:36:36.170Z,25.10
2023-06-26T10:39:07.177Z,25.10
2023-06-26T10:41:52.904Z,25.10
2023-06-26T10:44:44.908Z,25.10
2023-06-26T10:47:29.410Z,25.10
2023-06-26T10:50:06.244Z,25.10
2023-06-26T10:52:40.079Z,25.10
2023-06-26T10:55:09.804Z,25.20
2023-06-26T10:57:42.068Z,25.10
2023-06-26T11:00:14.815Z,25.10
2023-06-26T11:02:51.572Z,25.10
2023-06-26T11:05:34.433Z,25.20
2023-06-26T11:08:09.174Z,25.20
2023-06-26T11:11:00.964Z,25.20
2023-06-26T11:13:28.070Z,25.20
2023-06-26T11:15:57.830Z,25.20
2023-06-26T11:18:25.337Z,25.20
2023-06-26T11:20:51.938Z,25.20
2023-06-26T11:23:25.629Z,25.20
2023-06-26T11:25:52.410Z,25.20
2023-06-26T11:28:18.977Z,25.20
2023-06-26T11:30:45.697Z,25.20
2023-06-26T11:33:12.494Z,25.20
2023-06-26T11:35:39.709Z,25.20
2023-06-26T11:38:06.423Z,25.20
2023-06-26T11:40:38.064Z,25.20
2023-06-26T11:43:05.166Z,25.20
2023-06-26T11:45:33.260Z,25.20
2023-06-26T11:48:01.643Z,25.20
2023-06-26T11:50:28.956Z,25.20
2023-06-26T11:52:59.860Z,25.30
2023-06-26T11:55:27.363Z,25.30
2023-06-26T11:57:56.250Z,25.30
2023-06-26T12:00:23.576Z,25.30
2023-06-26T12:02:51.519Z,25.30
2023-06-26T12:05:18.686Z,25.30
2023-06-26T12:07:50.206Z,25.30
2023-06-26T12:10:19.831Z,25.30
2023-06-26T12:12:47.142Z,25.30
2023-06-26T12:15:16.543Z,25.30
2023-06-26T12:17:44.099Z,25.30
2023-06-26T12:20:23.791Z,25.30
2023-06-26T12:22:50.696Z,25.30
2023-06-26T12:25:24.256Z,25.30
2023-06-26T12:27:51.186Z,25.40
2023-06-26T12:30:17.813Z,25.40
2023-06-26T12:32:48.362Z,25.40
2023-06-26T12:35:16.724Z,25.40
2023-06-26T12:37:45.627Z,25.40
2023-06-26T12:40:20.328Z,25.40
2023-06-26T12:42:47.802Z,25.40
2023-06-26T12:45:31.082Z,25.40
2023-06-26T12:48:11.791Z,25.40
2023-06-26T12:50:48.996Z,25.40
2023-06-26T12:53:16.180Z,25.40
2023-06-26T12:55:43.096Z,25.40
2023-06-26T12:58:12.584Z,25.40
2023-06-26T13:00:40.540Z,25.40
2023-06-26T13:03:09.967Z,25.40
2023-06-26T13:05:38.191Z,25.40
2023-06-26T13:08:05.114Z,25.40
2023-06-26T13:10:31.675Z,25.50
2023-06-26T13:12:58.500Z,25.40
2023-06-26T13:15:25.130Z,25.40
2023-06-26T13:17:51.762Z,25.50
2023-06-26T13:20:18.409Z,25.50
2023-06-26T13:22:47.107Z,25.50
2023-06-26T13:25:13.713Z,25.50
2023-06-26T13:27:40.368Z,25.50
2023-06-26T13:30:07.632Z,25.50
2023-06-26T13:32:34.417Z,25.50
2023-06-26T13:35:01.007Z,25.50
2023-06-26T13:37:27.621Z,25.50
2023-06-26T13:39:54.346Z,25.50
2023-06-26T13:42:21.358Z,25.50
2023-06-26T13:45:01.185Z,25.50
2023-06-26T13:47:31.148Z,25.50
2023-06-26T13:49:57.836Z,25.50
2023-06-26T13:52:24.555Z,25.50
2023-06-26T13:54:51.151Z,25.50
2023-06-26T13:57:17.726Z,25.60
2023-06-26T13:59:46.124Z,25.60
2023-06-26T14:02:14.420Z,25.50
2023-06-26T14:04:41.330Z,25.50
2023-06-26T14:07:08.401Z,25.50
2023-06-26T14:09:35.234Z,25.60
2023-06-26T14:12:02.057Z,25.60
2023-06-26T14:14:28.628Z,25.60
2023-06-26T14:16:55.222Z,25.60
2023-06-26T14:19:21.953Z,25.60
2023-06-26T14:21:48.513Z,25.60
2023-06-26T14:24:15.108Z,25.60
2023-06-26T14:26:41.764Z,25.60
2023-06-26T14:29:08.373Z,25.60
2023-06-26T14:31:35.133Z,25.60
2023-06-26T14:34:03.770Z,25.70
2023-06-26T14:36:32.992Z,25.60
2023-06-26T14:39:00.621Z,25.60
2023-06-26T14:41:28.778Z,25.70
2023-06-26T14:43:55.941Z,25.70
2023-06-26T14:46:23.199Z,25.70
2023-06-26T14:48:52.158Z,25.70
2023-06-26T14:51:18.778Z,25.70
2023-06-26T14:53:45.419Z,25.70
2023-06-26T14:56:13.430Z,25.70
2023-06-26T14:58:40.149Z,25.70
2023-06-26T15:01:06.750Z,25.70
2023-06-26T15:03:33.439Z,25.70
2023-06-26T15:06:00.264Z,25.70
2023-06-26T15:08:26.907Z,25.70
2023-06-26T15:10:53.540Z,25.70
2023-06-26T15:13:20.148Z,25.70
2023-06-26T15:15:46.862Z,25.70
2023-06-26T15:18:13.504Z,25.70
2023-06-26T15:20:40.473Z,25.70
2023-06-26T15:23:07.245Z,25.70
2023-06-26T15:25:36.110Z,25.70
2023-06-26T15:28:02.974Z,25.70
2023-06-26T15:30:29.635Z,25.70
2023-06-26T15:32:56.329Z,25.70
2023-06-26T15:35:23.195Z,25.80
2023-06-26T15:37:50.456Z,25.80
2023-06-26T15:40:17.168Z,25.80
2023-06-26T15:42:48.283Z,25.80
2023-06-26T15:45:15.819Z,25.80
2023-06-26T15:47:42.600Z,25.80
2023-06-26T15:50:09.721Z,25.80
2023-06-26T15:52:36.888Z,25.80
2023-06-26T15:55:03.776Z,25.80
2023-06-26T15:57:32.992Z,25.80
2023-06-26T16:00:01.139Z,25.80
2023-06-26T16:02:27.802Z,25.80
2023-06-26T16:04:54.521Z,25.80
2023-06-26T16:07:23.912Z,25.80
2023-06-26T16:09:51.545Z,25.80
2023-06-26T16:12:18.245Z,25.80
2023-06-26T16:14:44.826Z,25.80
2023-06-26T16:17:11.476Z,25.80
2023-06-26T16:19:38.068Z,25.90
2023-06-26T16:22:05.449Z,25.90
2023-06-26T16:24:32.098Z,25.80
2023-06-26T16:26:58.851Z,25.90
2023-06-26T16:29:25.489Z,25.80
2023-06-26T16:31:55.039Z,25.90
2023-06-26T16:34:22.222Z,25.80
2023-06-26T16:36:51.032Z,25.90
2023-06-26T16:39:20.672Z,25.90
2023-06-26T16:41:54.765Z,25.90
2023-06-26T16:44:22.248Z,25.90
2023-06-26T16:46:49.424Z,25.90
2023-06-26T16:49:16.022Z,25.80
2023-06-26T16:51:42.650Z,25.90
2023-06-26T16:54:10.940Z,25.90
2023-06-26T16:56:37.624Z,25.90
2023-06-26T16:59:04.260Z,25.90
2023-06-26T17:01:30.902Z,25.90
2023-06-26T17:03:58.185Z,25.90
2023-06-26T17:06:24.895Z,25.90
2023-06-26T17:08:51.495Z,25.90
2023-06-26T17:11:18.134Z,26.00
2023-06-26T17:13:44.794Z,26.00
2023-06-26T17:16:11.539Z,26.00
2023-06-26T17:18:38.289Z,26.00
2023-06-26T17:21:04.976Z,26.00
2023-06-26T17:23:31.596Z,26.00
2023-06-26T17:26:03.620Z,26.00
2023-06-26T17:28:32.293Z,26.00
2023-06-26T17:30:59.011Z,25.90
2023-06-26T17:33:25.640Z,26.00
2023-06-26T17:35:52.342Z,26.00
2023-06-26T17:38:18.920Z,26.00
2023-06-26T17:40:45.545Z,26.00
2023-06-26T17:43:12.134Z,26.00
2023-06-26T17:45:38.970Z,26.00
2023-06-26T17:48:06.169Z,26.00
2023-06-26T17:50:32.894Z,26.00
2023-06-26T17:53:00.208Z,26.00
2023-06-26T17:55:27.122Z,26.00
2023-06-26T17:57:53.951Z,26.00
2023-06-26T18:00:20.787Z,26.00
2023-06-26T18:02:47.529Z,26.00
2023-06-26T18:05:14.289Z,26.00
2023-06-26T18:07:57.644Z,26.00
2023-06-26T18:10:27.746Z,26.00
2023-06-26T18:12:56.929Z,26.00
2023-06-26T18:15:23.889Z,26.00
2023-06-26T18:17:50.842Z,26.00
2023-06-26T18:20:17.573Z,26.00
2023-06-26T18:22:44.408Z,26.10
2023-06-26T18:25:10.991Z,26.00
2023-06-26T18:27:40.625Z,26.10
2023-06-26T18:30:08.039Z,26.10
2023-06-26T18:32:34.774Z,26.00
2023-06-26T18:35:01.387Z,26.10
2023-06-26T18:37:27.940Z,26.10
2023-06-26T18:39:54.532Z,26.10
2023-06-26T18:42:21.268Z,26.10
2023-06-26T18:44:48.110Z,26.10
2023-06-26T18:47:14.920Z,26.00
2023-06-26T18:49:43.407Z,26.10
2023-06-26T18:52:10.106Z,26.10
2023-06-26T18:54:36.697Z,26.10
2023-06-26T18:57:03.620Z,26.10
2023-06-26T18:59:30.197Z,26.10
2023-06-26T19:01:56.887Z,26.10
2023-06-26T19:04:24.899Z,26.10
2023-06-26T19:06:51.689Z,26.10
2023-06-26T19:09:18.835Z,26.10
2023-06-26T19:11:45.520Z,26.10
2023-06-26T19:14:12.133Z,26.10
2023-06-26T19:16:39.630Z,26.10
2023-06-26T19:19:06.217Z,26.10
2023-06-26T19:21:32.902Z,26.10
2023-06-26T19:23:59.527Z,26.10
2023-06-26T19:26:26.969Z,26.10
2023-06-26T19:28:53.737Z,26.10
2023-06-26T19:31:20.375Z,26.10
2023-06-26T19:33:46.995Z,26.10
2023-06-26T19:36:15.872Z,26.10
2023-06-26T19:38:42.544Z,26.10
2023-06-26T19:41:09.212Z,26.10
2023-06-26T19:43:36.115Z,26.10
2023-06-26T19:46:03.106Z,26.20
2023-06-26T19:48:30.717Z,26.20
2023-06-26T19:50:57.566Z,26.10
2023-06-26T19:53:26.275Z,26.10
2023-06-26T19:55:52.862Z,26.20
2023-06-26T19:58:19.540Z,26.20
2023-06-26T20:00:46.105Z,26.20
2023-06-26T20:03:12.776Z,26.20
2023-06-26T20:05:39.810Z,26.20
2023-06-26T20:08:06.714Z,26.20
2023-06-26T20:10:33.301Z,26.20
2023-06-26T20:12:59.940Z,26.20
2023-06-26T20:15:26.547Z,26.20
2023-06-26T20:17:53.218Z,26.20
2023-06-26T20:20:19.859Z,26.20
2023-06-26T20:22:46.459Z,26.20
2023-06-26T20:25:13.114Z,26.20
2023-06-26T20:27:39.765Z,26.20
2023-06-26T20:30:07.837Z,26.20
2023-06-26T20:32:34.540Z,26.20
2023-06-26T20:35:01.189Z,26.20
2023-06-26T20:37:27.857Z,26.20
2023-06-26T20:39:54.707Z,26.20
2023-06-26T20:42:21.523Z,26.20
2023-06-26T20:44:48.875Z,26.20
2023-06-26T20:47:16.228Z,26.20
2023-06-26T20:49:43.883Z,26.20
2023-06-26T20:52:12.756Z,26.20
2023-06-26T20:54:41.009Z,26.20
2023-06-26T20:57:10.125Z,26.20
2023-06-26T20:59:40.198Z,26.20
2023-06-26T21:02:07.268Z,26.20
2023-06-26T21:04:37.658Z,26.20
2023-06-26T21:07:06.925Z,26.20
2023-06-26T21:09:33.680Z,26.20
2023-06-26T21:12:02.559Z,26.20
2023-06-26T21:14:29.221Z,26.20
2023-06-26T21:16:55.851Z,26.20
2023-06-26T21:19:22.408Z,26.20
2023-06-26T21:21:49.382Z,26.20
2023-06-26T21:24:16.041Z,26.20
2023-06-26T21:26:42.831Z,26.20
2023-06-26T21:29:09.598Z,26.20
2023-06-26T21:31:36.377Z,26.30
2023-06-26T21:34:03.203Z,26.30
2023-06-26T21:36:29.883Z,26.20
2023-06-26T21:38:56.570Z,26.30
2023-06-26T21:41:23.655Z,26.20
2023-06-26T21:43:50.384Z,26.30
2023-06-26T21:46:17.113Z,26.20
2023-06-26T21:48:49.304Z,26.20
2023-06-26T21:51:15.973Z,26.30
2023-06-26T21:53:42.623Z,26.30
2023-06-26T21:56:09.228Z,26.20
2023-06-26T21:58:35.877Z,26.20
2023-06-26T22:01:02.667Z,26.30
2023-06-26T22:03:29.453Z,26.30
2023-06-26T22:05:56.137Z,26.30
2023-06-26T22:08:22.835Z,26.30
2023-06-26T22:10:49.522Z,26.20
2023-06-26T22:13:16.435Z,26.30
2023-06-26T22:15:43.465Z,26.30
2023-06-26T22:18:10.360Z,26.20
2023-06-26T22:20:37.086Z,26.30
2023-06-26T22:23:03.807Z,26.30
2023-06-26T22:25:30.442Z,26.30
2023-06-26T22:27:57.162Z,26.30
2023-06-26T22:30:25.544Z,26.30
2023-06-26T22:32:52.439Z,26.30
2023-06-26T22:35:19.402Z,26.30
2023-06-26T22:37:46.116Z,26.30
2023-06-26T22:40:14.223Z,26.30
2023-06-26T22:42:41.385Z,26.30
2023-06-26T22:45:09.816Z,26.30
2023-06-26T22:47:37.511Z,26.30
2023-06-26T22:50:06.647Z,26.30
2023-06-26T22:52:33.421Z,26.30
2023-06-26T22:55:01.147Z,26.30
2023-06-26T22:57:28.386Z,26.30
2023-06-26T22:59:55.150Z,26.30
2023-06-26T23:02:22.252Z,26.30
2023-06-26T23:04:49.819Z,26.30
2023-06-26T23:07:16.694Z,26.30
2023-06-26T23:09:43.821Z,26.30
2023-06-26T23:12:10.589Z,26.30
2023-06-26T23:14:37.225Z,26.30
2023-06-26T23:17:06.693Z,26.30
2023-06-26T23:19:39.748Z,26.30
2023-06-26T23:22:10.597Z,26.30
2023-06-26T23:24:38.565Z,26.30
2023-06-26T23:27:12.027Z,26.30
2023-06-26T23:29:40.129Z,26.30
2023-06-26T23:32:08.336Z,26.30
2023-06-26T23:34:40.030Z,26.30
2023-06-26T23:37:13.672Z,26.30
2023-06-26T23:39:46.419Z,26.30
2023-06-26T23:42:13.202Z,26.30
2023-06-26T23:44:41.394Z,26.30
2023-06-26T23:47:08.246Z,26.30
2023-06-26T23:49:36.484Z,26.30
2023-06-26T23:52:04.369Z,26.30
2023-06-26T23:54:32.357Z,26.30
2023-06-26T23:56:59.460Z,26.30
2023-06-26T23:59:26.124Z,26.30
